Time;durP1;ratioP1;P1;durP2;ratioP2;P2;SDS_P1;SDS_P2;PMS_P1;PMS_P2;Temp;Humidity;BMP_temperature;BMP_pressure;BME280_temperature;BME280_humidity;BME280_pressure;Samples;Min_cycle;Max_cycle;Signal;HPM_P1;HPM_P2
2024/01/22 00:01:52;;;;;;;8.50;4.75;;;;;;;;;;5050496;28;20053;-85
2024/01/22 00:04:20;;;;;;;7.50;4.70;;;;;;;;;;5055349;28;20049;-83
2024/01/22 00:06:47;;;;;;;10.40;5.43;;;;;;;;;;5046003;28;20049;-82
2024/01/22 00:09:15;;;;;;;11.32;4.70;;;;;;;;;;5043517;28;20123;-81
2024/01/22 00:11:43;;;;;;;5.85;4.32;;;;;;;;;;5049874;28;20048;-82
2024/01/22 00:14:10;;;;;;;8.05;4.28;;;;;;;;;;5043435;28;20055;-84
2024/01/22 00:16:39;;;;;;;5.53;4.22;;;;;;;;;;5042439;28;20045;-82
2024/01/22 00:19:07;;;;;;;5.75;4.30;;;;;;;;;;5043718;28;20124;-83
2024/01/22 00:21:34;;;;;;;7.07;4.20;;;;;;;;;;5047099;28;20506;-83
2024/01/22 00:24:02;;;;;;;5.78;3.95;;;;;;;;;;5045763;28;20053;-83
2024/01/22 00:26:29;;;;;;;10.60;5.28;;;;;;;;;;5043004;28;20056;-83
2024/01/22 00:28:56;;;;;;;5.43;3.85;;;;;;;;;;5044448;28;20246;-84
2024/01/22 00:31:23;;;;;;;7.28;3.70;;;;;;;;;;5043095;28;20529;-84
2024/01/22 00:33:51;;;;;;;7.18;4.30;;;;;;;;;;5043203;28;20061;-83
2024/01/22 00:36:18;;;;;;;5.40;3.70;;;;;;;;;;5045262;28;20077;-83
2024/01/22 00:38:45;;;;;;;6.55;3.58;;;;;;;;;;5045742;28;20418;-83
2024/01/22 00:41:13;;;;;;;7.85;3.70;;;;;;;;;;5047428;28;20477;-83
2024/01/22 00:43:40;;;;;;;7.28;3.00;;;;;;;;;;5048268;28;20053;-82
2024/01/22 00:46:07;;;;;;;7.72;3.70;;;;;;;;;;5046797;28;20041;-83
2024/01/22 00:48:34;;;;;;;6.82;2.80;;;;;;;;;;5041452;28;20045;-82
2024/01/22 00:51:02;;;;;;;5.07;3.13;;;;;;;;;;5048159;28;20064;-84
2024/01/22 00:53:29;;;;;;;5.10;3.10;;;;;;;;;;5045815;28;20049;-82
2024/01/22 00:55:57;;;;;;;5.85;3.17;;;;;;;;;;5045691;28;20053;-83
2024/01/22 00:58:24;;;;;;;4.22;2.88;;;;;;;;;;5038394;28;20058;-83
2024/01/22 01:00:51;;;;;;;3.90;2.58;;;;;;;;;;5047762;28;20494;-82
2024/01/22 01:03:19;;;;;;;5.55;2.33;;;;;;;;;;5050784;28;20057;-82
2024/01/22 01:05:46;;;;;;;3.78;2.65;;;;;;;;;;5053428;28;20059;-83
2024/01/22 01:08:13;;;;;;;3.70;2.50;;;;;;;;;;5051389;28;20053;-83
2024/01/22 01:10:40;;;;;;;5.25;2.53;;;;;;;;;;5048402;28;20046;-82
2024/01/22 01:13:08;;;;;;;5.32;3.08;;;;;;;;;;5050645;28;20104;-83
2024/01/22 01:15:35;;;;;;;4.95;3.45;;;;;;;;;;5049410;28;20499;-83
2024/01/22 01:18:02;;;;;;;3.22;2.78;;;;;;;;;;5051068;28;20060;-83
2024/01/22 01:20:30;;;;;;;4.72;2.83;;;;;;;;;;5041343;28;20454;-80
2024/01/22 01:22:57;;;;;;;3.53;2.90;;;;;;;;;;5045484;28;20053;-81
2024/01/22 01:25:24;;;;;;;5.28;3.30;;;;;;;;;;5048656;28;20064;-80
2024/01/22 01:27:51;;;;;;;6.97;2.90;;;;;;;;;;5051745;28;20052;-83
2024/01/22 01:30:18;;;;;;;3.80;3.30;;;;;;;;;;5048169;28;20045;-82
2024/01/22 01:32:46;;;;;;;3.97;3.08;;;;;;;;;;5047662;28;20045;-83
2024/01/22 01:35:14;;;;;;;3.58;3.28;;;;;;;;;;5067567;28;20053;-84
2024/01/22 01:37:41;;;;;;;6.22;3.20;;;;;;;;;;5050741;28;20390;-83
2024/01/22 01:40:08;;;;;;;6.30;3.13;;;;;;;;;;5049838;28;20052;-83
2024/01/22 01:42:36;;;;;;;4.78;3.08;;;;;;;;;;5064741;28;20103;-83
2024/01/22 01:45:03;;;;;;;3.85;3.20;;;;;;;;;;5047425;28;20482;-83
2024/01/22 01:47:30;;;;;;;4.95;3.28;;;;;;;;;;5042307;28;20041;-83
2024/01/22 01:49:57;;;;;;;3.28;2.85;;;;;;;;;;5060837;28;20083;-82
2024/01/22 01:52:25;;;;;;;5.07;3.22;;;;;;;;;;5049948;28;20122;-82
2024/01/22 01:54:52;;;;;;;4.47;3.33;;;;;;;;;;5067100;28;20045;-81
2024/01/22 01:57:22;;;;;;;6.75;3.65;;;;;;;;;;5047444;28;20049;-83
2024/01/22 01:59:51;;;;;;;3.75;2.90;;;;;;;;;;5065780;28;20060;-82
2024/01/22 02:02:20;;;;;;;4.18;3.25;;;;;;;;;;5050762;28;20084;-83
2024/01/22 02:04:47;;;;;;;5.70;3.40;;;;;;;;;;5041031;28;20454;-84
2024/01/22 02:07:15;;;;;;;5.35;3.25;;;;;;;;;;5067121;28;20490;-83
2024/01/22 02:09:53;;;;;;;3.90;3.50;;;;;;;;;;5051340;28;20049;-84
2024/01/22 02:12:21;;;;;;;4.45;3.00;;;;;;;;;;5067162;28;20146;-83
2024/01/22 02:14:48;;;;;;;3.80;3.42;;;;;;;;;;5048597;28;20049;-84
2024/01/22 02:17:16;;;;;;;3.67;3.05;;;;;;;;;;5051932;28;20493;-84
2024/01/22 02:19:43;;;;;;;3.97;3.47;;;;;;;;;;5053249;28;20482;-84
2024/01/22 02:22:11;;;;;;;4.25;3.17;;;;;;;;;;5043720;28;20114;-85
2024/01/22 02:24:38;;;;;;;6.05;2.90;;;;;;;;;;5053515;28;20118;-84
2024/01/22 02:27:06;;;;;;;2.80;2.60;;;;;;;;;;5070498;28;20084;-85
2024/01/22 02:29:33;;;;;;;3.92;3.53;;;;;;;;;;5048310;28;20045;-84
2024/01/22 02:32:00;;;;;;;3.10;2.90;;;;;;;;;;5056382;28;20040;-84
2024/01/22 02:34:28;;;;;;;3.53;3.05;;;;;;;;;;5049368;28;20047;-82
2024/01/22 02:36:55;;;;;;;4.50;3.38;;;;;;;;;;5046842;28;20053;-84
2024/01/22 02:39:22;;;;;;;3.65;3.25;;;;;;;;;;5038169;28;20504;-84
2024/01/22 02:41:50;;;;;;;3.90;3.38;;;;;;;;;;5046299;28;20056;-84
2024/01/22 02:44:17;;;;;;;3.33;3.03;;;;;;;;;;5049152;28;20092;-84
2024/01/22 02:46:44;;;;;;;4.32;3.20;;;;;;;;;;5050352;28;20044;-85
2024/01/22 02:49:12;;;;;;;3.15;2.85;;;;;;;;;;5040318;28;20046;-85
2024/01/22 02:51:42;;;;;;;4.78;2.95;;;;;;;;;;5050105;28;20066;-85
2024/01/22 02:54:09;;;;;;;3.00;2.80;;;;;;;;;;5047700;28;20045;-85
2024/01/22 02:56:37;;;;;;;3.15;2.88;;;;;;;;;;5063345;28;20088;-84
2024/01/22 02:59:04;;;;;;;4.28;2.83;;;;;;;;;;5046871;28;20076;-83
2024/01/22 03:01:31;;;;;;;2.50;2.20;;;;;;;;;;5049355;28;20048;-84
2024/01/22 03:03:59;;;;;;;6.50;2.90;;;;;;;;;;5048392;28;20044;-84
2024/01/22 03:06:26;;;;;;;4.03;2.70;;;;;;;;;;5045393;28;20232;-83
2024/01/22 03:08:54;;;;;;;3.25;2.90;;;;;;;;;;5045386;28;20055;-84
2024/01/22 03:11:22;;;;;;;4.78;3.03;;;;;;;;;;5063135;28;20106;-84
2024/01/22 03:13:50;;;;;;;4.60;2.90;;;;;;;;;;5045258;28;20046;-83
2024/01/22 03:16:17;;;;;;;2.63;2.40;;;;;;;;;;5047834;28;20079;-84
2024/01/22 03:18:44;;;;;;;3.97;2.70;;;;;;;;;;5038474;28;20103;-85
2024/01/22 03:21:12;;;;;;;3.20;2.47;;;;;;;;;;5046969;28;20049;-85
2024/01/22 03:23:40;;;;;;;3.13;2.30;;;;;;;;;;5048031;28;20049;-84
2024/01/22 03:26:07;;;;;;;2.50;2.30;;;;;;;;;;5047627;28;20048;-84
2024/01/22 03:28:35;;;;;;;2.67;2.47;;;;;;;;;;5047566;28;20045;-84
2024/01/22 03:31:02;;;;;;;4.68;2.72;;;;;;;;;;5048123;28;20044;-84
2024/01/22 03:33:29;;;;;;;2.80;2.53;;;;;;;;;;5048065;28;20102;-85
2024/01/22 03:35:56;;;;;;;4.07;2.15;;;;;;;;;;5037370;28;20064;-86
2024/01/22 03:38:24;;;;;;;2.65;2.20;;;;;;;;;;5069411;28;20084;-85
2024/01/22 03:40:51;;;;;;;2.67;2.00;;;;;;;;;;5052475;28;20052;-85
2024/01/22 03:43:18;;;;;;;4.60;2.42;;;;;;;;;;5044234;28;20106;-86
2024/01/22 03:45:45;;;;;;;3.78;2.42;;;;;;;;;;5055189;28;20074;-86
2024/01/22 03:48:13;;;;;;;2.88;2.50;;;;;;;;;;5050080;28;20089;-84
2024/01/22 03:50:40;;;;;;;2.70;2.50;;;;;;;;;;5062899;28;20067;-84
2024/01/22 03:53:07;;;;;;;2.30;1.90;;;;;;;;;;5046511;28;20506;-86
2024/01/22 03:55:35;;;;;;;2.47;2.22;;;;;;;;;;5039949;28;20414;-85
2024/01/22 03:58:02;;;;;;;3.90;2.45;;;;;;;;;;5059846;28;20417;-85
2024/01/22 04:00:29;;;;;;;3.80;2.35;;;;;;;;;;5044311;28;20562;-86
2024/01/22 04:02:56;;;;;;;8.00;4.78;;;;;;;;;;5045403;28;20343;-85
2024/01/22 04:05:24;;;;;;;10.38;4.82;;;;;;;;;;5044946;28;20071;-82
2024/01/22 04:07:51;;;;;;;4.68;2.90;;;;;;;;;;5045244;28;20494;-85
2024/01/22 04:10:18;;;;;;;3.35;2.67;;;;;;;;;;5048081;28;20048;-85
2024/01/22 04:12:45;;;;;;;4.18;2.10;;;;;;;;;;5059693;28;20494;-86
2024/01/22 04:15:13;;;;;;;2.38;2.08;;;;;;;;;;5047179;28;20048;-86
2024/01/22 04:17:40;;;;;;;2.22;1.95;;;;;;;;;;5048282;28;20074;-86
2024/01/22 04:20:09;;;;;;;2.25;1.90;;;;;;;;;;5047321;28;20059;-86
2024/01/22 04:22:36;;;;;;;3.05;1.55;;;;;;;;;;5045274;28;20107;-86
2024/01/22 04:25:04;;;;;;;5.20;1.75;;;;;;;;;;5036630;28;20054;-87
2024/01/22 04:27:31;;;;;;;3.75;1.50;;;;;;;;;;5056187;28;20068;-87
2024/01/22 04:29:58;;;;;;;2.13;1.45;;;;;;;;;;5044954;28;20060;-86
2024/01/22 04:32:26;;;;;;;2.15;1.48;;;;;;;;;;5040579;28;20045;-86
2024/01/22 04:34:54;;;;;;;2.33;1.65;;;;;;;;;;5044355;28;20520;-86
2024/01/22 04:37:21;;;;;;;2.75;1.70;;;;;;;;;;5047708;28;20052;-86
2024/01/22 04:39:49;;;;;;;2.85;1.50;;;;;;;;;;5048013;28;20049;-85
2024/01/22 04:42:20;;;;;;;3.97;1.50;;;;;;;;;;5045999;28;20055;-84
2024/01/22 04:44:47;;;;;;;2.10;1.75;;;;;;;;;;5045323;28;20045;-86
2024/01/22 04:47:14;;;;;;;1.83;1.73;;;;;;;;;;5047978;28;20071;-86
2024/01/22 04:49:42;;;;;;;2.95;2.13;;;;;;;;;;5038753;28;20056;-86
2024/01/22 04:52:09;;;;;;;1.90;1.50;;;;;;;;;;5053021;28;20071;-86
2024/01/22 04:54:36;;;;;;;3.03;1.35;;;;;;;;;;5042110;28;20056;-87
2024/01/22 04:57:04;;;;;;;2.08;1.40;;;;;;;;;;5050055;28;20048;-87
2024/01/22 04:59:31;;;;;;;1.80;1.48;;;;;;;;;;5069919;28;20063;-86
2024/01/22 05:01:58;;;;;;;5.28;1.55;;;;;;;;;;5049342;28;20061;-85
2024/01/22 05:04:26;;;;;;;1.65;1.55;;;;;;;;;;5050919;28;20053;-86
2024/01/22 05:06:53;;;;;;;2.30;1.58;;;;;;;;;;5039861;28;20145;-86
2024/01/22 05:09:21;;;;;;;3.13;1.50;;;;;;;;;;5047994;28;20118;-86
2024/01/22 05:11:50;;;;;;;3.78;1.88;;;;;;;;;;5047691;28;20077;-86
2024/01/22 05:14:17;;;;;;;1.95;1.70;;;;;;;;;;5064752;28;20045;-86
2024/01/22 05:16:44;;;;;;;4.88;1.45;;;;;;;;;;5047977;28;20064;-87
2024/01/22 05:19:11;;;;;;;2.00;1.58;;;;;;;;;;5056952;28;20505;-86
2024/01/22 05:21:39;;;;;;;3.15;1.55;;;;;;;;;;5047136;28;20103;-86
2024/01/22 05:24:06;;;;;;;2.53;1.70;;;;;;;;;;5048355;28;20049;-85
2024/01/22 05:26:33;;;;;;;3.97;1.55;;;;;;;;;;5050659;28;20056;-86
2024/01/22 05:29:01;;;;;;;3.25;1.67;;;;;;;;;;5039591;28;20409;-86
2024/01/22 05:31:28;;;;;;;5.25;1.77;;;;;;;;;;5043099;28;20045;-86
2024/01/22 05:33:55;;;;;;;5.43;2.28;;;;;;;;;;5061850;28;20056;-86
2024/01/22 05:36:22;;;;;;;2.17;1.75;;;;;;;;;;5039373;28;20111;-86
2024/01/22 05:38:50;;;;;;;2.25;1.40;;;;;;;;;;5047536;28;20060;-86
2024/01/22 05:41:17;;;;;;;1.73;1.38;;;;;;;;;;5044928;28;20080;-86
2024/01/22 05:43:44;;;;;;;1.30;1.20;;;;;;;;;;5042505;28;20081;-85
2024/01/22 05:46:12;;;;;;;1.85;1.50;;;;;;;;;;5050326;28;20127;-86
2024/01/22 05:48:39;;;;;;;2.55;2.10;;;;;;;;;;5050783;28;20512;-87
2024/01/22 05:51:06;;;;;;;2.13;1.48;;;;;;;;;;5050392;28;20040;-86
2024/01/22 05:53:37;;;;;;;1.30;1.20;;;;;;;;;;5057986;28;20049;-85
2024/01/22 05:56:05;;;;;;;2.17;1.50;;;;;;;;;;5049124;28;20045;-87
2024/01/22 05:58:32;;;;;;;1.77;1.50;;;;;;;;;;5051852;28;20061;-85
2024/01/22 06:01:00;;;;;;;4.97;1.65;;;;;;;;;;5042219;28;20541;-85
2024/01/22 06:03:27;;;;;;;3.22;1.40;;;;;;;;;;5052840;28;20054;-85
2024/01/22 06:05:54;;;;;;;2.88;1.30;;;;;;;;;;5052331;28;20379;-87
2024/01/22 06:08:22;;;;;;;1.45;1.35;;;;;;;;;;5049874;28;20072;-86
2024/01/22 06:10:50;;;;;;;1.77;1.17;;;;;;;;;;5050900;28;20106;-86
2024/01/22 06:13:24;;;;;;;1.42;1.33;;;;;;;;;;5054656;28;20056;-86
2024/01/22 06:15:52;;;;;;;1.85;1.70;;;;;;;;;;5043975;28;20047;-85
2024/01/22 06:18:22;;;;;;;1.70;1.60;;;;;;;;;;5056798;28;20110;-86
2024/01/22 06:20:50;;;;;;;1.10;1.10;;;;;;;;;;5048293;28;20432;-85
2024/01/22 06:23:17;;;;;;;2.53;1.38;;;;;;;;;;5049956;28;20052;-87
2024/01/22 06:25:44;;;;;;;1.63;1.52;;;;;;;;;;5050258;28;20053;-84
2024/01/22 06:28:12;;;;;;;1.67;1.20;;;;;;;;;;5048341;28;20044;-86
2024/01/22 06:30:39;;;;;;;2.42;1.38;;;;;;;;;;5046819;28;20107;-85
2024/01/22 06:33:08;;;;;;;3.42;1.70;;;;;;;;;;5047917;28;20048;-86
2024/01/22 06:35:36;;;;;;;1.30;1.20;;;;;;;;;;5041479;28;20069;-86
2024/01/22 06:38:05;;;;;;;2.72;1.40;;;;;;;;;;5047233;28;20505;-85
2024/01/22 06:40:34;;;;;;;1.83;1.40;;;;;;;;;;5050613;28;20139;-86
2024/01/22 06:43:01;;;;;;;2.22;1.88;;;;;;;;;;5038882;28;20053;-86
2024/01/22 06:45:28;;;;;;;1.92;1.40;;;;;;;;;;5042379;28;20049;-86
2024/01/22 06:47:55;;;;;;;1.45;1.30;;;;;;;;;;5046542;28;20049;-87
2024/01/22 06:50:23;;;;;;;3.35;1.45;;;;;;;;;;5025053;28;20074;-86
2024/01/22 06:52:50;;;;;;;1.60;1.50;;;;;;;;;;5049236;28;20059;-86
2024/01/22 06:55:18;;;;;;;4.88;1.63;;;;;;;;;;5063812;28;20110;-87
2024/01/22 06:57:46;;;;;;;2.25;1.60;;;;;;;;;;5046360;28;20049;-86
2024/01/22 07:00:15;;;;;;;3.30;1.42;;;;;;;;;;5048169;28;20091;-87
2024/01/22 07:02:43;;;;;;;5.68;1.50;;;;;;;;;;5049567;28;20493;-87
2024/01/22 07:05:11;;;;;;;2.15;1.60;;;;;;;;;;5065432;28;20091;-86
2024/01/22 07:07:39;;;;;;;1.45;1.35;;;;;;;;;;5046528;28;20049;-87
2024/01/22 07:10:08;;;;;;;3.22;1.40;;;;;;;;;;5064310;28;20122;-87
2024/01/22 07:12:36;;;;;;;5.22;2.28;;;;;;;;;;5046364;28;20049;-86
2024/01/22 07:15:04;;;;;;;2.25;1.60;;;;;;;;;;5047776;28;20056;-87
2024/01/22 07:17:31;;;;;;;4.60;1.60;;;;;;;;;;5043034;28;20050;-86
2024/01/22 07:19:59;;;;;;;5.95;1.70;;;;;;;;;;5046591;28;20053;-87
2024/01/22 07:22:26;;;;;;;3.30;1.50;;;;;;;;;;5047554;28;20422;-87
2024/01/22 07:24:53;;;;;;;2.03;1.48;;;;;;;;;;5047116;28;20048;-87
2024/01/22 07:27:21;;;;;;;2.03;1.67;;;;;;;;;;5051091;28;20167;-86
2024/01/22 07:29:49;;;;;;;2.60;2.03;;;;;;;;;;5049050;28;20056;-87
2024/01/22 07:32:16;;;;;;;1.77;1.60;;;;;;;;;;5045732;28;20045;-85
2024/01/22 07:34:43;;;;;;;2.03;1.55;;;;;;;;;;5043337;28;20139;-86
2024/01/22 07:37:11;;;;;;;2.30;1.55;;;;;;;;;;5030554;28;20045;-86
2024/01/22 07:39:38;;;;;;;3.92;1.70;;;;;;;;;;5044878;28;20099;-86
2024/01/22 07:42:05;;;;;;;2.25;1.60;;;;;;;;;;5045144;28;20052;-87
2024/01/22 07:44:33;;;;;;;2.53;1.38;;;;;;;;;;5037196;28;20072;-86
2024/01/22 07:47:00;;;;;;;2.67;1.55;;;;;;;;;;5045479;28;20126;-86
2024/01/22 07:49:27;;;;;;;1.70;1.60;;;;;;;;;;5048857;28;20091;-86
2024/01/22 07:51:55;;;;;;;5.13;1.63;;;;;;;;;;5037678;28;20080;-87
2024/01/22 07:54:22;;;;;;;4.53;1.60;;;;;;;;;;5048500;28;20072;-86
2024/01/22 07:56:49;;;;;;;1.35;1.20;;;;;;;;;;5059662;28;20045;-86
2024/01/22 07:59:16;;;;;;;2.30;1.50;;;;;;;;;;5047875;28;20044;-86
2024/01/22 08:01:44;;;;;;;1.38;1.30;;;;;;;;;;5048256;28;20045;-86
2024/01/22 08:04:12;;;;;;;3.50;1.30;;;;;;;;;;5039079;28;20491;-86
2024/01/22 08:06:39;;;;;;;1.48;1.30;;;;;;;;;;5048444;28;20136;-86
2024/01/22 08:09:07;;;;;;;2.72;1.40;;;;;;;;;;5065674;28;20118;-84
2024/01/22 08:11:35;;;;;;;7.07;2.17;;;;;;;;;;5062792;28;20474;-87
2024/01/22 08:14:02;;;;;;;2.65;1.42;;;;;;;;;;5046458;28;20106;-86
2024/01/22 08:16:29;;;;;;;6.60;2.13;;;;;;;;;;5049276;28;20053;-86
2024/01/22 08:18:57;;;;;;;1.58;1.30;;;;;;;;;;5065650;28;20102;-85
2024/01/22 08:21:24;;;;;;;3.38;1.60;;;;;;;;;;5046227;28;20099;-86
2024/01/22 08:23:52;;;;;;;4.82;1.50;;;;;;;;;;5045947;28;20053;-85
2024/01/22 08:26:19;;;;;;;1.80;1.52;;;;;;;;;;5049682;28;20063;-85
2024/01/22 08:28:46;;;;;;;1.42;1.25;;;;;;;;;;5053963;28;20045;-87
2024/01/22 08:31:14;;;;;;;5.43;1.25;;;;;;;;;;5061083;28;20109;-87
2024/01/22 08:33:41;;;;;;;2.45;1.50;;;;;;;;;;5062603;28;20099;-87
2024/01/22 08:36:08;;;;;;;3.00;1.58;;;;;;;;;;5047455;28;20049;-87
2024/01/22 08:38:35;;;;;;;2.47;1.20;;;;;;;;;;5048346;28;20498;-86
2024/01/22 08:41:08;;;;;;;1.50;1.30;;;;;;;;;;5049890;28;20071;-86
2024/01/22 08:43:35;;;;;;;2.25;1.50;;;;;;;;;;5043862;28;20049;-86
2024/01/22 08:46:03;;;;;;;2.45;1.30;;;;;;;;;;5045287;28;20053;-87
2024/01/22 08:48:30;;;;;;;1.50;1.30;;;;;;;;;;5047688;28;20045;-85
2024/01/22 08:50:58;;;;;;;1.58;1.20;;;;;;;;;;5047453;28;20485;-87
2024/01/22 08:53:25;;;;;;;1.60;1.25;;;;;;;;;;5040934;28;20052;-86
2024/01/22 08:55:52;;;;;;;1.40;1.30;;;;;;;;;;5043091;28;20397;-87
2024/01/22 08:58:22;;;;;;;2.22;1.70;;;;;;;;;;5061699;28;20052;-87
2024/01/22 09:00:50;;;;;;;1.88;1.33;;;;;;;;;;5043648;28;20048;-87
2024/01/22 09:03:18;;;;;;;2.03;1.52;;;;;;;;;;5063700;28;20053;-87
2024/01/22 09:05:45;;;;;;;1.50;1.17;;;;;;;;;;5046687;28;20048;-86
2024/01/22 09:08:13;;;;;;;2.42;1.17;;;;;;;;;;5044760;28;20040;-86
2024/01/22 09:10:41;;;;;;;2.60;1.55;;;;;;;;;;5043984;28;20044;-86
2024/01/22 09:13:09;;;;;;;3.00;1.63;;;;;;;;;;5062613;28;20049;-86
2024/01/22 09:15:37;;;;;;;1.63;1.30;;;;;;;;;;5047051;28;20048;-86
2024/01/22 09:18:04;;;;;;;2.58;1.58;;;;;;;;;;5046338;28;20059;-86
2024/01/22 09:20:31;;;;;;;3.42;1.75;;;;;;;;;;5043602;28;20103;-86
2024/01/22 09:22:59;;;;;;;3.53;1.80;;;;;;;;;;5043217;28;20045;-86
2024/01/22 09:25:26;;;;;;;2.60;1.52;;;;;;;;;;5046775;28;20048;-86
2024/01/22 09:27:53;;;;;;;2.50;1.52;;;;;;;;;;5012599;28;20050;-86
2024/01/22 09:30:20;;;;;;;3.30;1.95;;;;;;;;;;5023265;28;20050;-87
2024/01/22 09:32:48;;;;;;;4.78;1.90;;;;;;;;;;5023388;28;20132;-86
2024/01/22 09:35:16;;;;;;;5.85;2.60;;;;;;;;;;5021121;28;20068;-87
2024/01/22 09:37:43;;;;;;;2.50;1.80;;;;;;;;;;5020452;28;20053;-87
2024/01/22 09:40:13;;;;;;;1.70;1.60;;;;;;;;;;5022387;28;20061;-86
2024/01/22 09:42:51;;;;;;;2.75;1.65;;;;;;;;;;5025696;28;20060;-86
2024/01/22 09:45:20;;;;;;;1.90;1.40;;;;;;;;;;5019015;28;20051;-86
2024/01/22 09:47:48;;;;;;;1.60;1.50;;;;;;;;;;5026485;28;20447;-86
2024/01/22 09:50:16;;;;;;;2.97;1.70;;;;;;;;;;5024257;28;20057;-87
2024/01/22 09:52:47;;;;;;;4.07;1.70;;;;;;;;;;5024599;28;20116;-86
2024/01/22 09:55:14;;;;;;;1.33;1.27;;;;;;;;;;5025629;28;20045;-87
2024/01/22 09:57:43;;;;;;;2.47;1.30;;;;;;;;;;5024543;28;20112;-86
2024/01/22 10:00:14;;;;;;;1.33;1.20;;;;;;;;;;5025245;28;20060;-86
2024/01/22 10:02:41;;;;;;;5.53;1.65;;;;;;;;;;5026328;28;20045;-87
2024/01/22 10:05:09;;;;;;;1.90;1.70;;;;;;;;;;5025104;28;20606;-86
2024/01/22 10:07:36;;;;;;;1.60;1.30;;;;;;;;;;5022798;28;20061;-87
2024/01/22 10:10:03;;;;;;;2.40;1.52;;;;;;;;;;5023920;28;20050;-86
2024/01/22 10:12:31;;;;;;;2.03;1.02;;;;;;;;;;5026239;28;20487;-87
2024/01/22 10:15:12;;;;;;;1.88;1.27;;;;;;;;;;5026285;28;20437;-87
2024/01/22 10:17:40;;;;;;;1.80;1.63;;;;;;;;;;5022642;28;20140;-86
2024/01/22 10:20:07;;;;;;;1.30;1.20;;;;;;;;;;5024131;28;20046;-86
2024/01/22 10:22:35;;;;;;;1.63;1.45;;;;;;;;;;5026671;28;20045;-86
2024/01/22 10:25:02;;;;;;;3.17;1.20;;;;;;;;;;5025729;28;20091;-87
2024/01/22 10:27:30;;;;;;;1.33;1.30;;;;;;;;;;5039444;28;20060;-87
2024/01/22 10:30:10;;;;;;;1.88;1.00;;;;;;;;;;5042852;28;20406;-86
2024/01/22 10:32:38;;;;;;;1.30;1.20;;;;;;;;;;5036530;28;20056;-89
2024/01/22 10:35:05;;;;;;;1.48;1.25;;;;;;;;;;5043714;28;20479;-90
2024/01/22 10:37:35;;;;;;;1.42;1.25;;;;;;;;;;5046277;28;20110;-89
2024/01/22 10:40:03;;;;;;;2.05;1.10;;;;;;;;;;5045391;28;20063;-90
2024/01/22 10:42:31;;;;;;;1.30;1.23;;;;;;;;;;5042561;28;20052;-89
2024/01/22 10:44:58;;;;;;;2.90;1.50;;;;;;;;;;5042532;28;20095;-89
2024/01/22 10:47:26;;;;;;;2.17;1.30;;;;;;;;;;5042691;28;20114;-91
2024/01/22 10:49:53;;;;;;;2.83;1.50;;;;;;;;;;5032002;28;20109;-90
2024/01/22 10:52:22;;;;;;;1.55;1.23;;;;;;;;;;5054035;28;20041;-89
2024/01/22 10:54:49;;;;;;;4.88;1.67;;;;;;;;;;5038572;28;20052;-88
2024/01/22 10:57:24;;;;;;;1.17;1.05;;;;;;;;;;5044849;28;20463;-90
2024/01/22 10:59:56;;;;;;;1.45;1.30;;;;;;;;;;5046860;28;20049;-90
2024/01/22 11:02:24;;;;;;;4.45;1.30;;;;;;;;;;5035157;28;20107;-88
2024/01/22 11:04:53;;;;;;;2.00;1.30;;;;;;;;;;5042309;28;20053;-89
2024/01/22 11:07:23;;;;;;;1.50;1.20;;;;;;;;;;5046698;28;20072;-86
2024/01/22 11:09:51;;;;;;;1.58;1.48;;;;;;;;;;5039224;28;20140;-90
2024/01/22 11:12:22;;;;;;;2.35;1.67;;;;;;;;;;5045908;28;20049;-89
2024/01/22 11:14:49;;;;;;;1.27;1.20;;;;;;;;;;5038552;28;20045;-88
2024/01/22 11:17:18;;;;;;;4.30;1.40;;;;;;;;;;5044490;28;20419;-88
2024/01/22 11:19:46;;;;;;;1.15;1.10;;;;;;;;;;5045472;28;20060;-90
2024/01/22 11:22:22;;;;;;;2.42;1.25;;;;;;;;;;5044031;28;20059;-90
2024/01/22 11:25:02;;;;;;;3.55;1.40;;;;;;;;;;5042759;28;20057;-90
2024/01/22 11:27:39;;;;;;;6.18;1.23;;;;;;;;;;5034575;28;20104;-90
2024/01/22 11:30:25;;;;;;;3.17;1.60;;;;;;;;;;5045606;28;20462;-86
2024/01/22 11:32:53;;;;;;;2.83;1.13;;;;;;;;;;5046869;28;20041;-87
2024/01/22 11:35:37;;;;;;;2.85;1.42;;;;;;;;;;5045767;28;20045;-87
2024/01/22 11:38:05;;;;;;;1.65;1.30;;;;;;;;;;5044586;28;20049;-86
2024/01/22 11:40:55;;;;;;;2.85;1.40;;;;;;;;;;5047976;28;20060;-86
2024/01/22 11:43:24;;;;;;;2.80;1.35;;;;;;;;;;5038638;28;20053;-87
2024/01/22 11:45:56;;;;;;;2.53;1.20;;;;;;;;;;5046191;28;20483;-86
2024/01/22 11:48:27;;;;;;;2.20;1.40;;;;;;;;;;5033231;28;20053;-85
2024/01/22 11:51:02;;;;;;;1.35;1.25;;;;;;;;;;5046092;28;20055;-85
2024/01/22 11:53:33;;;;;;;2.30;1.63;;;;;;;;;;5036206;28;20050;-86
2024/01/22 11:56:01;;;;;;;2.08;1.38;;;;;;;;;;5044388;28;20041;-86
2024/01/22 11:58:29;;;;;;;2.72;1.42;;;;;;;;;;5046144;28;20112;-87
2024/01/22 12:00:56;;;;;;;2.80;1.50;;;;;;;;;;5046815;28;20088;-86
2024/01/22 12:03:30;;;;;;;4.07;2.00;;;;;;;;;;5036689;28;20088;-85
2024/01/22 12:06:01;;;;;;;8.32;1.98;;;;;;;;;;5041134;28;20133;-86
2024/01/22 12:08:29;;;;;;;1.52;1.23;;;;;;;;;;5036040;28;20045;-87
2024/01/22 12:11:10;;;;;;;2.50;1.55;;;;;;;;;;5043102;28;20053;-86
2024/01/22 12:13:37;;;;;;;1.42;1.33;;;;;;;;;;5038227;28;20045;-86
2024/01/22 12:16:05;;;;;;;1.30;1.08;;;;;;;;;;5046692;28;20056;-86
2024/01/22 12:18:32;;;;;;;4.10;1.65;;;;;;;;;;5049549;28;20060;-86
2024/01/22 12:20:59;;;;;;;2.63;1.60;;;;;;;;;;5039102;28;20057;-86
2024/01/22 12:23:30;;;;;;;8.90;1.50;;;;;;;;;;5047870;28;20049;-86
2024/01/22 12:25:59;;;;;;;3.55;1.40;;;;;;;;;;5038669;28;20060;-86
2024/01/22 12:28:31;;;;;;;2.75;1.50;;;;;;;;;;5037007;28;20050;-86
2024/01/22 12:31:03;;;;;;;2.17;1.45;;;;;;;;;;5018944;28;20050;-86
2024/01/22 12:33:34;;;;;;;5.28;1.50;;;;;;;;;;5044625;28;20046;-86
2024/01/22 12:36:12;;;;;;;2.90;1.45;;;;;;;;;;5045753;28;20049;-87
2024/01/22 12:38:49;;;;;;;3.67;1.42;;;;;;;;;;5046635;28;20071;-86
2024/01/22 12:41:18;;;;;;;5.70;1.90;;;;;;;;;;5040230;28;20061;-86
2024/01/22 12:43:46;;;;;;;2.33;1.92;;;;;;;;;;5047738;28;20049;-86
2024/01/22 12:46:15;;;;;;;1.40;1.30;;;;;;;;;;5045345;28;20049;-86
2024/01/22 12:48:46;;;;;;;3.63;1.50;;;;;;;;;;5043907;28;20135;-87
2024/01/22 12:51:14;;;;;;;1.48;1.35;;;;;;;;;;5043157;28;20535;-86
2024/01/22 12:53:42;;;;;;;1.50;1.23;;;;;;;;;;5044719;28;20131;-86
2024/01/22 12:56:10;;;;;;;1.55;1.20;;;;;;;;;;5043836;28;20059;-87
2024/01/22 12:58:38;;;;;;;1.13;1.05;;;;;;;;;;5041936;28;20656;-86
2024/01/22 13:01:06;;;;;;;1.15;1.10;;;;;;;;;;5044037;28;20108;-87
2024/01/22 13:03:34;;;;;;;1.38;0.93;;;;;;;;;;5045627;28;20059;-86
2024/01/22 13:06:02;;;;;;;2.17;0.93;;;;;;;;;;5037027;28;20072;-87
2024/01/22 13:08:29;;;;;;;2.00;1.08;;;;;;;;;;5045771;28;20045;-87
2024/01/22 13:10:59;;;;;;;4.05;1.20;;;;;;;;;;5047064;28;20045;-87
2024/01/22 13:13:27;;;;;;;0.70;0.70;;;;;;;;;;5044041;28;20056;-87
2024/01/22 13:15:54;;;;;;;0.93;0.80;;;;;;;;;;5045154;28;20513;-88
2024/01/22 13:18:24;;;;;;;1.52;1.00;;;;;;;;;;5047997;28;20061;-87
2024/01/22 13:20:52;;;;;;;0.80;0.80;;;;;;;;;;5046517;28;20052;-91
2024/01/22 13:23:19;;;;;;;1.45;0.50;;;;;;;;;;5046566;28;20482;-89
2024/01/22 13:25:47;;;;;;;0.70;0.70;;;;;;;;;;5049856;28;20053;-90
2024/01/22 13:28:15;;;;;;;0.68;0.68;;;;;;;;;;5048369;28;20422;-90
2024/01/22 13:30:43;;;;;;;0.60;0.60;;;;;;;;;;5047190;28;20044;-90
2024/01/22 13:33:10;;;;;;;0.93;0.93;;;;;;;;;;5066681;28;20099;-91
2024/01/22 13:35:38;;;;;;;1.83;0.85;;;;;;;;;;5050762;28;20049;-90
2024/01/22 13:38:07;;;;;;;0.70;0.70;;;;;;;;;;5051201;28;20052;-91
2024/01/22 13:40:35;;;;;;;1.27;0.60;;;;;;;;;;5052342;28;20051;-90
2024/01/22 13:43:02;;;;;;;0.60;0.60;;;;;;;;;;5050348;28;20059;-90
2024/01/22 13:45:30;;;;;;;0.55;0.55;;;;;;;;;;5035484;28;20055;-89
2024/01/22 13:48:01;;;;;;;0.50;0.50;;;;;;;;;;5038779;28;20045;-89
2024/01/22 13:50:30;;;;;;;0.30;0.30;;;;;;;;;;5039765;28;20095;-89
2024/01/22 13:52:57;;;;;;;1.83;0.75;;;;;;;;;;5048378;28;20053;-89
2024/01/22 13:55:28;;;;;;;0.82;0.50;;;;;;;;;;5042594;28;20053;-90
2024/01/22 13:57:56;;;;;;;0.63;0.50;;;;;;;;;;5048361;28;20417;-90
2024/01/22 14:00:23;;;;;;;0.60;0.40;;;;;;;;;;5052625;28;20075;-89
2024/01/22 14:02:50;;;;;;;1.38;0.55;;;;;;;;;;5052547;28;20170;-89
2024/01/22 14:05:18;;;;;;;0.70;0.70;;;;;;;;;;5049409;28;20044;-90
2024/01/22 14:07:47;;;;;;;0.45;0.45;;;;;;;;;;5066070;28;20045;-90
2024/01/22 14:10:14;;;;;;;0.70;0.57;;;;;;;;;;5050932;28;20464;-89
2024/01/22 14:12:42;;;;;;;0.60;0.40;;;;;;;;;;5042502;28;20045;-89
2024/01/22 14:15:11;;;;;;;1.27;0.40;;;;;;;;;;5050631;28;20059;-89
2024/01/22 14:17:39;;;;;;;1.35;0.80;;;;;;;;;;5052521;28;20106;-89
2024/01/22 14:20:07;;;;;;;1.45;0.60;;;;;;;;;;5051934;28;20060;-89
2024/01/22 14:22:36;;;;;;;4.22;1.00;;;;;;;;;;5055281;28;20049;-89
2024/01/22 14:25:07;;;;;;;1.25;1.10;;;;;;;;;;5040102;28;20057;-89
2024/01/22 14:27:34;;;;;;;6.45;4.63;;;;;;;;;;5048390;28;20053;-89
2024/01/22 14:30:02;;;;;;;2.95;1.70;;;;;;;;;;5047041;28;20049;-89
2024/01/22 14:32:30;;;;;;;3.65;2.33;;;;;;;;;;5047361;28;20045;-90
2024/01/22 14:35:00;;;;;;;4.85;3.03;;;;;;;;;;5046806;28;20513;-90
2024/01/22 14:37:28;;;;;;;9.60;5.47;;;;;;;;;;5049914;28;20057;-90
2024/01/22 14:39:55;;;;;;;12.48;7.18;;;;;;;;;;5050117;28;20051;-90
2024/01/22 14:42:23;;;;;;;14.20;9.40;;;;;;;;;;5051287;28;20053;-89
2024/01/22 14:44:52;;;;;;;19.00;12.15;;;;;;;;;;5050994;28;20044;-90
2024/01/22 14:47:20;;;;;;;18.55;12.70;;;;;;;;;;5060588;28;20143;-89
2024/01/22 14:49:47;;;;;;;12.43;7.80;;;;;;;;;;5050090;28;20506;-89